createdAt,value
2023-02-18T00:02:01.878Z,45.0904
2023-02-18T00:07:03.584Z,44.41081
2023-02-18T00:12:05.238Z,45.40045
2023-02-18T00:17:07.127Z,45.89995
2023-02-18T00:22:09.012Z,45.87106
2023-02-18T00:27:10.656Z,46.85892
2023-02-18T00:32:12.384Z,46.61563
2023-02-18T00:37:14.189Z,47.02637
2023-02-18T00:42:16.086Z,47.70093
2023-02-18T00:47:17.778Z,47.19295
2023-02-18T00:52:19.467Z,47.99714
2023-02-18T00:57:21.317Z,48.3933
2023-02-18T01:02:22.914Z,49.09397
2023-02-18T01:07:24.587Z,50.5019
2023-02-18T01:12:26.276Z,50.30258
2023-02-18T01:17:27.929Z,51.53723
2023-02-18T01:22:29.640Z,50.88323
2023-02-18T01:27:32.022Z,52.76449
2023-02-18T01:32:33.723Z,51.97012
2023-02-18T01:37:35.646Z,52.23863
2023-02-18T01:42:37.281Z,52.97028
2023-02-18T01:47:39.148Z,53.0964
2023-02-18T01:52:41.036Z,53.64061
2023-02-18T01:57:42.664Z,54.1257
2023-02-18T02:02:44.509Z,54.69821
2023-02-18T02:07:46.111Z,53.16629
2023-02-18T02:12:47.772Z,52.27361
2023-02-18T02:17:49.365Z,53.24821
2023-02-18T02:22:50.977Z,52.57791
2023-02-18T02:27:52.662Z,52.07392
2023-02-18T02:32:54.500Z,53.00021
2023-02-18T02:37:56.179Z,53.98824
2023-02-18T02:42:57.916Z,51.80533
2023-02-18T02:47:59.620Z,53.32362
2023-02-18T02:53:01.451Z,52.26618
2023-02-18T02:58:03.430Z,53.59994
2023-02-18T03:03:05.130Z,49.82772
2023-02-18T03:08:06.898Z,49.73826
2023-02-18T03:13:08.542Z,49.04606
2023-02-18T03:18:10.210Z,50.51969
2023-02-18T03:23:11.934Z,51.82794
2023-02-18T03:28:13.569Z,54.44307
2023-02-18T03:33:15.265Z,52.92826
2023-02-18T03:38:17.008Z,51.68562
2023-02-18T03:43:18.827Z,52.82349
2023-02-18T03:48:20.526Z,52.53829
2023-02-18T03:53:22.340Z,52.17512
2023-02-18T03:58:23.944Z,53.43082
2023-02-18T04:03:25.737Z,52.88312
2023-02-18T04:08:27.350Z,52.43033
2023-02-18T04:13:29.056Z,51.32766
2023-02-18T04:18:30.665Z,53.86966
2023-02-18T04:23:32.256Z,54.54124
2023-02-18T04:28:33.921Z,55.10694
2023-02-18T04:33:35.633Z,54.77965
2023-02-18T04:38:37.559Z,54.63558
2023-02-18T04:43:39.241Z,53.65134
2023-02-18T04:48:41.212Z,54.70086
2023-02-18T04:53:43.046Z,54.76802
2023-02-18T04:58:44.708Z,55.95354
2023-02-18T05:03:46.517Z,57.63813
2023-02-18T05:08:48.347Z,58.46775
2023-02-18T05:13:50.026Z,55.6289
2023-02-18T05:18:51.703Z,56.45107
2023-02-18T05:23:53.338Z,56.04805
2023-02-18T05:28:54.971Z,56.37619
2023-02-18T05:33:56.660Z,55.93683
2023-02-18T05:38:58.434Z,59.08248
2023-02-18T05:44:00.096Z,56.89646
2023-02-18T05:49:01.793Z,57.8594
2023-02-18T05:54:03.499Z,56.06253
2023-02-18T05:59:05.145Z,57.44594
2023-02-18T06:04:07.030Z,56.83138
2023-02-18T06:09:08.659Z,56.26592
2023-02-18T06:14:10.333Z,55.20281
2023-02-18T06:19:11.978Z,56.8865
2023-02-18T06:24:13.634Z,57.41482
2023-02-18T06:29:15.252Z,58.22416
2023-02-18T06:34:16.915Z,60.36203
2023-02-18T06:39:18.600Z,59.13041
2023-02-18T06:44:20.166Z,56.73256
2023-02-18T06:49:21.805Z,57.77436
2023-02-18T06:54:23.420Z,59.84823
2023-02-18T06:59:25.002Z,58.8737
2023-02-18T07:04:26.774Z,57.25002
2023-02-18T07:09:28.509Z,54.75908
2023-02-18T07:14:30.155Z,55.39623
2023-02-18T07:19:31.802Z,56.99534
2023-02-18T07:24:33.520Z,57.79121
2023-02-18T07:29:35.208Z,58.88597
2023-02-18T07:34:36.909Z,60.96738
2023-02-18T07:39:38.532Z,60.90901
2023-02-18T07:44:40.206Z,59.7913
2023-02-18T07:49:41.835Z,58.10481
2023-02-18T07:54:43.604Z,57.23515
2023-02-18T07:59:45.212Z,58.11835
2023-02-18T08:04:47.032Z,58.70403
2023-02-18T08:09:48.736Z,58.15145
2023-02-18T08:14:50.418Z,58.23589
2023-02-18T08:19:52.116Z,61.69151
2023-02-18T08:24:53.795Z,63.16021
2023-02-18T08:29:55.488Z,62.55476
2023-02-18T08:34:57.175Z,59.97252
2023-02-18T08:39:58.905Z,61.61224
2023-02-18T08:45:00.569Z,63.53704
2023-02-18T08:50:02.247Z,63.78706
2023-02-18T08:55:03.868Z,61.86912
2023-02-18T09:00:05.539Z,58.60091
2023-02-18T09:05:07.202Z,58.79553
2023-02-18T09:10:08.861Z,62.24964
2023-02-18T09:15:10.563Z,59.76177
2023-02-18T09:20:12.200Z,59.5293
2023-02-18T09:25:13.837Z,60.96673
2023-02-18T09:30:15.766Z,59.71629
2023-02-18T09:35:17.494Z,61.31664
2023-02-18T09:40:19.190Z,59.33672
2023-02-18T09:45:20.874Z,59.92941
2023-02-18T09:50:23.227Z,61.96647
2023-02-18T09:55:24.851Z,61.3871
2023-02-18T10:00:26.442Z,62.6379
2023-02-18T10:05:28.291Z,59.65292
2023-02-18T10:10:29.941Z,60.64793
2023-02-18T10:15:31.566Z,62.04541
2023-02-18T10:20:33.371Z,63.00362
2023-02-18T10:25:35.117Z,61.90379
2023-02-18T10:30:36.818Z,64.30752
2023-02-18T10:35:38.440Z,65.32118
2023-02-18T10:40:40.206Z,62.95092
2023-02-18T10:45:41.884Z,61.08369
2023-02-18T10:50:43.504Z,61.47118
2023-02-18T10:55:45.167Z,61.22318
2023-02-18T11:00:46.846Z,61.30421
2023-02-18T11:05:48.470Z,59.52588
2023-02-18T11:10:50.174Z,62.26203
2023-02-18T11:15:51.911Z,64.44577
2023-02-18T11:20:53.545Z,63.70316
2023-02-18T11:25:55.196Z,59.99879
2023-02-18T11:30:56.882Z,58.461
2023-02-18T11:35:58.605Z,60.07292
2023-02-18T11:41:00.245Z,60.22206
2023-02-18T11:46:01.939Z,60.48187
2023-02-18T11:51:04.811Z,60.99769
2023-02-18T11:56:07.473Z,60.06477
2023-02-18T12:01:09.444Z,60.45717
2023-02-18T12:06:11.300Z,62.47241
2023-02-18T12:11:12.963Z,60.51914
2023-02-18T12:16:14.698Z,60.25438
2023-02-18T12:21:16.353Z,61.54706
2023-02-18T12:26:17.940Z,62.49496
2023-02-18T12:31:19.664Z,61.02523
2023-02-18T12:36:21.331Z,58.85073
2023-02-18T12:41:23.002Z,62.28753
2023-02-18T12:46:24.601Z,61.64196
2023-02-18T12:51:26.841Z,62.45857
2023-02-18T12:56:29.443Z,64.90893
2023-02-18T13:01:31.125Z,64.83235
2023-02-18T13:06:33.035Z,62.13209
2023-02-18T13:11:34.873Z,59.92596
2023-02-18T13:16:36.607Z,61.16353
2023-02-18T13:21:38.277Z,60.01248
2023-02-18T13:26:39.962Z,62.1169
2023-02-18T13:31:41.863Z,60.86257
2023-02-18T13:36:43.593Z,65.39524
2023-02-18T13:41:45.231Z,64.18317
2023-02-18T13:46:46.894Z,62.71317
2023-02-18T13:51:48.770Z,60.33689
2023-02-18T13:56:50.450Z,63.87275
2023-02-18T14:01:52.140Z,62.06325
2023-02-18T14:06:54.024Z,61.53371
2023-02-18T14:11:55.724Z,62.91716
2023-02-18T14:16:57.357Z,63.76871
2023-02-18T14:21:58.978Z,61.90035
2023-02-18T14:27:00.618Z,63.79001
2023-02-18T14:32:02.583Z,63.37153
2023-02-18T14:37:04.299Z,63.28127
2023-02-18T14:42:05.963Z,61.35915
2023-02-18T14:47:07.644Z,60.47085
2023-02-18T14:52:09.366Z,59.85469
2023-02-18T14:57:11.035Z,61.19434
2023-02-18T15:02:12.697Z,60.28401
2023-02-18T15:07:14.305Z,60.10558
2023-02-18T15:12:15.872Z,62.11828
2023-02-18T15:17:17.496Z,65.31295
2023-02-18T15:22:19.175Z,61.73334
2023-02-18T15:27:20.811Z,61.56683
2023-02-18T15:32:22.596Z,61.50268
2023-02-18T15:37:24.493Z,61.85251
2023-02-18T15:42:26.382Z,61.64683
2023-02-18T15:47:28.102Z,66.95297
2023-02-18T15:52:29.960Z,69.09772
2023-02-18T15:57:31.690Z,65.54523
2023-02-18T16:02:33.312Z,64.70164
2023-02-18T16:07:35.016Z,65.5348
2023-02-18T16:12:36.914Z,63.96532
2023-02-18T16:17:38.584Z,64.38666
2023-02-18T16:22:40.313Z,63.34905
2023-02-18T16:27:41.994Z,65.64376
2023-02-18T16:32:43.769Z,66.27736
2023-02-18T16:37:45.538Z,66.45911
2023-02-18T16:42:47.321Z,66.81041
2023-02-18T16:47:48.980Z,65.33263
2023-02-18T16:52:51.341Z,65.18662
2023-02-18T16:57:53.133Z,63.76494
2023-02-18T17:02:54.859Z,63.27631
2023-02-18T17:07:56.512Z,62.5725
2023-02-18T17:12:58.185Z,64.95534
2023-02-18T17:17:59.886Z,64.22609
2023-02-18T17:23:01.480Z,60.31036
2023-02-18T17:28:03.307Z,60.4401
2023-02-18T17:33:05.034Z,59.29075
2023-02-18T17:38:07.642Z,60.21946
2023-02-18T17:43:09.359Z,58.74236
2023-02-18T17:48:11.009Z,56.56148
2023-02-18T17:53:12.651Z,56.43122
2023-02-18T17:58:14.395Z,54.70647
2023-02-18T18:03:16.052Z,53.93636
2023-02-18T18:08:17.813Z,52.49902
2023-02-18T18:13:19.485Z,55.37967
2023-02-18T18:18:21.053Z,53.25143
2023-02-18T18:23:22.791Z,51.93994
2023-02-18T18:28:24.484Z,51.41506
2023-02-18T18:33:26.215Z,52.55905
2023-02-18T18:38:27.912Z,50.91496
2023-02-18T18:43:32.500Z,51.49883
2023-02-18T18:48:34.671Z,49.24841
2023-02-18T18:53:36.513Z,48.9939
2023-02-18T18:58:38.666Z,50.95105
2023-02-18T19:03:40.304Z,48.06666
2023-02-18T19:08:41.986Z,47.87542
2023-02-18T19:13:43.715Z,46.27714
2023-02-18T19:18:45.381Z,45.26019
2023-02-18T19:23:46.994Z,45.20053
2023-02-18T19:28:48.663Z,46.66032
2023-02-18T19:33:50.755Z,43.39884
2023-02-18T19:38:52.673Z,44.6586
2023-02-18T19:43:54.649Z,41.02944
2023-02-18T19:48:56.435Z,42.35247
2023-02-18T19:53:58.121Z,42.58759
2023-02-18T19:58:59.796Z,41.59329
2023-02-18T20:04:02.037Z,40.48967
2023-02-18T20:09:03.779Z,40.03289
2023-02-18T20:14:05.374Z,40.39438
2023-02-18T20:19:07.190Z,41.09266
2023-02-18T20:24:09.071Z,42.85051
2023-02-18T20:29:10.911Z,41.93323
2023-02-18T20:34:12.624Z,40.41317
2023-02-18T20:39:16.387Z,39.9493
2023-02-18T20:44:18.464Z,37.89877
2023-02-18T20:49:20.137Z,39.39499
2023-02-18T20:54:21.835Z,39.5002
2023-02-18T20:59:23.544Z,39.82776
2023-02-18T21:04:25.466Z,40.80138
2023-02-18T21:09:27.044Z,35.34862
2023-02-18T21:14:28.653Z,39.83174
2023-02-18T21:19:30.269Z,38.94657
2023-02-18T21:24:32.124Z,39.61467
2023-02-18T21:29:33.816Z,39.89721
2023-02-18T21:34:35.415Z,40.72855
2023-02-18T21:39:37.084Z,41.4662
2023-02-18T21:44:42.598Z,41.2979
2023-02-18T21:49:44.503Z,42.87902
2023-02-18T21:54:46.219Z,45.10984
2023-02-18T21:59:47.924Z,43.35456
2023-02-18T22:04:49.663Z,43.6658
2023-02-18T22:09:51.490Z,41.04073
2023-02-18T22:14:53.114Z,39.60068
2023-02-18T22:19:54.773Z,40.06062
2023-02-18T22:24:56.721Z,41.88983
2023-02-18T22:29:58.427Z,49.79172
2023-02-18T22:35:00.149Z,51.74904
2023-02-18T22:40:01.768Z,53.58568
2023-02-18T22:45:03.387Z,51.37894
2023-02-18T22:50:05.145Z,48.68253
2023-02-18T22:55:06.759Z,49.8145
2023-02-18T23:00:08.639Z,52.85842
2023-02-18T23:05:10.266Z,56.15394
2023-02-18T23:10:11.878Z,51.41221
2023-02-18T23:15:14.247Z,56.20172
2023-02-18T23:20:15.894Z,54.45305
2023-02-18T23:25:17.542Z,54.47068
2023-02-18T23:30:19.290Z,53.42967
2023-02-18T23:35:20.985Z,51.54219
2023-02-18T23:40:22.674Z,49.37958
2023-02-18T23:45:24.306Z,49.71586
2023-02-18T23:50:25.981Z,50.11984
2023-02-18T23:55:27.618Z,51.91086
